Time;durP1;ratioP1;P1;durP2;ratioP2;P2;SDS_P1;SDS_P2;PMS_P1;PMS_P2;Temp;Humidity;BMP_temperature;BMP_pressure;BME280_temperature;BME280_humidity;BME280_pressure;Samples;Min_cycle;Max_cycle;Signal;HPM_P1;HPM_P2
2021/07/05 00:02:32;;;;;;;0.98;0.65;;;24.40;50.60;;;;;;6316933;28;20127;-68
2021/07/05 00:05:32;;;;;;;0.60;0.50;;;24.40;50.70;;;;;;6317930;28;20030;-69
2021/07/05 00:08:34;;;;;;;0.80;0.60;;;24.40;50.70;;;;;;6317985;28;20020;-67
2021/07/05 00:11:34;;;;;;;0.63;0.45;;;24.40;50.70;;;;;;6318133;28;20016;-67
2021/07/05 00:14:35;;;;;;;0.68;0.60;;;24.40;50.80;;;;;;6317737;28;20026;-69
2021/07/05 00:17:36;;;;;;;0.80;0.70;;;24.40;50.80;;;;;;6317916;28;20480;-67
2021/07/05 00:20:42;;;;;;;1.20;0.80;;;24.40;50.90;;;;;;6316134;28;20016;-68
2021/07/05 00:23:43;;;;;;;0.60;0.50;;;24.40;51.00;;;;;;6316087;28;20020;-68
2021/07/05 00:26:44;;;;;;;0.57;0.50;;;24.40;51.10;;;;;;6316089;28;20031;-67
2021/07/05 00:29:45;;;;;;;0.77;0.60;;;24.30;51.00;;;;;;6317440;28;20032;-67
2021/07/05 00:32:46;;;;;;;0.57;0.57;;;24.30;51.20;;;;;;6317516;28;20024;-69
2021/07/05 00:35:47;;;;;;;0.52;0.52;;;24.30;51.20;;;;;;6315794;28;20388;-67
2021/07/05 00:38:47;;;;;;;0.50;0.50;;;24.30;51.30;;;;;;6317189;28;20082;-68
2021/07/05 00:41:48;;;;;;;0.60;0.43;;;24.30;51.30;;;;;;6317684;28;20031;-68
2021/07/05 00:44:50;;;;;;;0.60;0.50;;;24.30;51.30;;;;;;6316929;28;20385;-68
2021/07/05 00:47:51;;;;;;;0.50;0.50;;;24.30;51.50;;;;;;6317712;28;20020;-69
2021/07/05 00:50:52;;;;;;;0.50;0.50;;;24.30;51.50;;;;;;6316139;28;20092;-68
2021/07/05 00:53:54;;;;;;;0.68;0.55;;;24.30;51.60;;;;;;6316642;28;20040;-68
2021/07/05 00:56:55;;;;;;;0.70;0.50;;;24.30;51.70;;;;;;6316210;28;20353;-68
2021/07/05 00:59:57;;;;;;;0.98;0.70;;;24.30;51.70;;;;;;6316023;28;20020;-69
2021/07/05 01:02:58;;;;;;;0.68;0.55;;;24.30;51.70;;;;;;6316253;28;20028;-69
2021/07/05 01:05:58;;;;;;;0.60;0.60;;;24.30;51.70;;;;;;6317458;28;20027;-67
2021/07/05 01:08:59;;;;;;;0.60;0.50;;;24.20;51.70;;;;;;6316170;28;20405;-68
2021/07/05 01:12:00;;;;;;;1.55;0.57;;;24.30;51.80;;;;;;6316140;28;20020;-68
2021/07/05 01:15:00;;;;;;;0.60;0.50;;;24.20;51.80;;;;;;6316886;28;20465;-69
2021/07/05 01:18:04;;;;;;;0.63;0.50;;;24.30;52.00;;;;;;6316426;28;20020;-68
2021/07/05 01:21:05;;;;;;;0.70;0.70;;;24.20;51.90;;;;;;6315794;28;20023;-68
2021/07/05 01:24:05;;;;;;;0.65;0.55;;;24.20;51.90;;;;;;6315504;28;20071;-68
2021/07/05 01:27:06;;;;;;;0.60;0.60;;;24.20;51.90;;;;;;6316082;28;20031;-68
2021/07/05 01:30:08;;;;;;;0.68;0.57;;;24.20;51.90;;;;;;6315706;28;20020;-67
2021/07/05 01:33:10;;;;;;;0.50;0.50;;;24.20;52.00;;;;;;6316404;28;20028;-67
2021/07/05 01:36:11;;;;;;;0.70;0.55;;;24.20;52.00;;;;;;6316289;28;20048;-67
2021/07/05 01:39:12;;;;;;;0.50;0.50;;;24.20;52.00;;;;;;6315830;28;20028;-68
2021/07/05 01:42:13;;;;;;;0.70;0.60;;;24.20;52.10;;;;;;6315791;28;20109;-68
2021/07/05 01:45:13;;;;;;;0.70;0.55;;;24.20;52.10;;;;;;6315199;28;20115;-66
2021/07/05 01:48:14;;;;;;;0.50;0.50;;;24.20;52.10;;;;;;6315954;28;20024;-69
2021/07/05 01:51:14;;;;;;;0.50;0.50;;;24.20;52.20;;;;;;6315594;28;20044;-68
2021/07/05 01:54:15;;;;;;;0.47;0.40;;;24.20;52.10;;;;;;6313397;28;20131;-67
2021/07/05 01:57:25;;;;;;;1.20;0.70;;;24.20;52.20;;;;;;6314960;28;20031;-67
2021/07/05 02:00:27;;;;;;;0.65;0.60;;;24.20;52.20;;;;;;6313806;28;20052;-68
2021/07/05 02:03:28;;;;;;;0.40;0.40;;;24.20;52.20;;;;;;6312967;28;20028;-68
2021/07/05 02:06:29;;;;;;;0.70;0.60;;;24.20;52.30;;;;;;6315289;28;20093;-68
2021/07/05 02:09:29;;;;;;;0.50;0.47;;;24.20;52.30;;;;;;6313263;28;20044;-68
2021/07/05 02:12:30;;;;;;;0.50;0.47;;;24.20;52.30;;;;;;6314712;28;20137;-68
2021/07/05 02:15:30;;;;;;;0.70;0.55;;;24.20;52.40;;;;;;6313416;28;20028;-68
2021/07/05 02:18:32;;;;;;;0.50;0.50;;;24.20;52.40;;;;;;6313086;28;20390;-69
2021/07/05 02:21:32;;;;;;;0.85;0.57;;;24.20;52.40;;;;;;6314927;28;20389;-67
2021/07/05 02:24:34;;;;;;;0.50;0.50;;;24.20;52.40;;;;;;6314361;28;20028;-68
2021/07/05 02:27:35;;;;;;;0.60;0.60;;;24.20;52.50;;;;;;6314727;28;20504;-68
2021/07/05 02:30:36;;;;;;;0.70;0.63;;;24.20;52.60;;;;;;6314965;28;20020;-67
2021/07/05 02:33:37;;;;;;;0.40;0.40;;;24.20;52.60;;;;;;6314333;28;20027;-68
2021/07/05 02:36:38;;;;;;;0.73;0.68;;;24.20;52.60;;;;;;6314272;28;20500;-68
2021/07/05 02:39:38;;;;;;;0.45;0.45;;;24.20;53.30;;;;;;6312928;28;20028;-65
2021/07/05 02:42:39;;;;;;;0.65;0.57;;;24.20;52.60;;;;;;6314635;28;20024;-69
2021/07/05 02:45:42;;;;;;;0.75;0.70;;;24.20;52.60;;;;;;6314901;28;20530;-69
2021/07/05 02:48:42;;;;;;;0.45;0.45;;;24.20;52.60;;;;;;6314132;28;20016;-68
2021/07/05 02:51:43;;;;;;;0.68;0.60;;;24.20;52.60;;;;;;6314025;28;20034;-69
2021/07/05 02:54:43;;;;;;;0.50;0.50;;;24.20;52.70;;;;;;6314063;28;20143;-69
2021/07/05 02:57:44;;;;;;;0.63;0.60;;;24.20;52.70;;;;;;6312523;28;20574;-68
2021/07/05 03:00:48;;;;;;;0.80;0.70;;;24.20;52.70;;;;;;6314415;28;20160;-69
2021/07/05 03:03:48;;;;;;;0.60;0.50;;;24.20;52.80;;;;;;6326862;28;20024;-67
2021/07/05 03:06:49;;;;;;;0.40;0.40;;;24.20;52.80;;;;;;6339562;28;20088;-67
2021/07/05 03:09:50;;;;;;;0.50;0.50;;;24.20;52.80;;;;;;6318452;28;20098;-68
2021/07/05 03:12:51;;;;;;;0.60;0.60;;;24.20;52.80;;;;;;6313661;28;20504;-68
2021/07/05 03:15:52;;;;;;;0.60;0.50;;;24.20;52.80;;;;;;6312985;28;20030;-68
2021/07/05 03:18:53;;;;;;;0.63;0.63;;;24.20;52.90;;;;;;6313986;28;20020;-68
2021/07/05 03:21:53;;;;;;;0.50;0.50;;;24.20;52.90;;;;;;6315542;28;20081;-68
2021/07/05 03:24:54;;;;;;;0.73;0.60;;;24.20;52.90;;;;;;6318307;28;20028;-68
2021/07/05 03:27:55;;;;;;;0.50;0.50;;;24.20;52.90;;;;;;6318647;28;20027;-68
2021/07/05 03:30:56;;;;;;;0.60;0.60;;;24.20;53.00;;;;;;6318822;28;20535;-69
2021/07/05 03:33:57;;;;;;;0.63;0.57;;;24.20;53.00;;;;;;6318928;28;20023;-68
2021/07/05 03:36:57;;;;;;;0.65;0.65;;;24.20;53.10;;;;;;6318351;28;20060;-67
2021/07/05 03:39:58;;;;;;;0.60;0.60;;;24.20;53.00;;;;;;6318252;28;20101;-69
2021/07/05 03:42:59;;;;;;;0.50;0.50;;;24.20;53.10;;;;;;6318346;28;20581;-68
2021/07/05 03:46:00;;;;;;;0.68;0.52;;;24.20;53.10;;;;;;6316909;28;20020;-68
2021/07/05 03:49:01;;;;;;;0.68;0.57;;;24.20;53.10;;;;;;6317706;28;20020;-68
2021/07/05 03:52:02;;;;;;;0.70;0.70;;;24.20;53.10;;;;;;6317940;28;20727;-69
2021/07/05 03:55:05;;;;;;;0.50;0.50;;;24.20;53.10;;;;;;6317701;28;20036;-68
2021/07/05 03:58:06;;;;;;;0.73;0.60;;;24.10;53.10;;;;;;6318170;28;20032;-67
2021/07/05 04:01:07;;;;;;;0.70;0.70;;;24.10;53.10;;;;;;6316671;28;20756;-67
2021/07/05 04:04:08;;;;;;;0.50;0.50;;;24.20;53.10;;;;;;6317040;28;20031;-68
2021/07/05 04:07:09;;;;;;;0.70;0.63;;;24.10;53.10;;;;;;6317980;28;20038;-69
2021/07/05 04:10:12;;;;;;;0.73;0.63;;;24.10;53.10;;;;;;6316097;28;20547;-66
2021/07/05 04:13:12;;;;;;;0.70;0.60;;;24.20;53.20;;;;;;6316044;28;20031;-67
2021/07/05 04:16:13;;;;;;;0.65;0.50;;;24.10;53.20;;;;;;6317634;28;20056;-68
2021/07/05 04:19:14;;;;;;;0.75;0.60;;;24.10;53.30;;;;;;6316053;28;20458;-69
2021/07/05 04:22:16;;;;;;;0.68;0.52;;;24.10;53.20;;;;;;6317227;28;20032;-68
2021/07/05 04:25:18;;;;;;;0.68;0.60;;;24.10;53.20;;;;;;6317023;28;20026;-68
2021/07/05 04:28:20;;;;;;;0.50;0.47;;;24.10;53.20;;;;;;6317242;28;20016;-68
2021/07/05 04:31:20;;;;;;;0.57;0.50;;;24.10;53.30;;;;;;6316878;28;20025;-69
2021/07/05 04:34:21;;;;;;;0.68;0.68;;;24.10;53.30;;;;;;6317055;28;20035;-67
2021/07/05 04:37:21;;;;;;;0.40;0.40;;;24.10;53.30;;;;;;6315664;28;20024;-68
2021/07/05 04:40:31;;;;;;;0.70;0.70;;;24.10;53.30;;;;;;6316715;28;20220;-69
2021/07/05 04:43:32;;;;;;;0.50;0.50;;;24.10;53.30;;;;;;6316599;28;20069;-69
2021/07/05 04:46:32;;;;;;;0.50;0.50;;;24.10;53.40;;;;;;6315202;28;20024;-68
2021/07/05 04:49:33;;;;;;;0.75;0.70;;;24.10;53.30;;;;;;6316756;28;20018;-68
2021/07/05 04:52:34;;;;;;;0.50;0.50;;;24.20;53.50;;;;;;6315061;28;20031;-68
2021/07/05 04:55:34;;;;;;;0.52;0.52;;;24.20;53.50;;;;;;6316237;28;20060;-68
2021/07/05 04:58:37;;;;;;;0.50;0.50;;;24.10;53.40;;;;;;6316441;28;20028;-68
2021/07/05 05:01:38;;;;;;;0.70;0.70;;;24.10;53.40;;;;;;6314919;28;20058;-69
2021/07/05 05:04:38;;;;;;;0.50;0.50;;;24.10;53.40;;;;;;6315956;28;20516;-69
2021/07/05 05:07:39;;;;;;;0.60;0.57;;;24.10;53.50;;;;;;6316220;28;20028;-68
2021/07/05 05:10:41;;;;;;;0.68;0.68;;;24.10;53.40;;;;;;6316019;28;20020;-68
2021/07/05 05:13:41;;;;;;;0.60;0.60;;;24.10;53.40;;;;;;6315667;28;20038;-67
2021/07/05 05:16:42;;;;;;;0.63;0.60;;;24.10;53.50;;;;;;6315874;28;20024;-68
2021/07/05 05:19:42;;;;;;;0.60;0.60;;;24.10;53.50;;;;;;6316008;28;20039;-69
2021/07/05 05:22:43;;;;;;;0.95;0.50;;;24.10;53.50;;;;;;6315864;28;20032;-68
2021/07/05 05:25:44;;;;;;;1.20;0.77;;;24.10;53.50;;;;;;6315826;28;20051;-67
2021/07/05 05:28:45;;;;;;;0.70;0.60;;;24.10;53.50;;;;;;6314680;28;20024;-68
2021/07/05 05:31:46;;;;;;;0.50;0.50;;;24.10;53.50;;;;;;6314475;28;20396;-68
2021/07/05 05:34:47;;;;;;;1.10;0.68;;;24.10;53.50;;;;;;6314097;28;20063;-68
2021/07/05 05:37:49;;;;;;;0.63;0.60;;;24.10;53.60;;;;;;6315963;28;20034;-67
2021/07/05 05:40:51;;;;;;;0.57;0.52;;;24.10;53.60;;;;;;6315673;28;20072;-68
2021/07/05 05:43:51;;;;;;;0.60;0.60;;;24.10;53.60;;;;;;6314048;28;20154;-69
2021/07/05 05:46:53;;;;;;;0.73;0.63;;;24.10;53.60;;;;;;6314184;28;20055;-69
2021/07/05 05:49:53;;;;;;;0.50;0.50;;;24.10;53.60;;;;;;6313884;28;20028;-69
2021/07/05 05:52:54;;;;;;;0.47;0.47;;;24.10;53.60;;;;;;6314071;28;20020;-69
2021/07/05 05:55:54;;;;;;;0.55;0.55;;;24.10;53.60;;;;;;6315294;28;20052;-68
2021/07/05 05:59:00;;;;;;;0.60;0.60;;;24.10;53.70;;;;;;6313500;28;20070;-68
2021/07/05 06:02:00;;;;;;;0.68;0.63;;;24.10;53.70;;;;;;6313833;28;20077;-69
2021/07/05 06:05:02;;;;;;;0.80;0.57;;;24.10;53.70;;;;;;6317892;28;20020;-69
2021/07/05 06:08:03;;;;;;;0.90;0.60;;;24.10;53.70;;;;;;6316451;28;20381;-69
2021/07/05 06:11:05;;;;;;;0.63;0.63;;;24.10;53.70;;;;;;6317443;28;20032;-69
2021/07/05 06:14:07;;;;;;;0.88;0.70;;;24.10;53.80;;;;;;6315698;28;20027;-69
2021/07/05 06:17:08;;;;;;;0.63;0.60;;;24.10;53.80;;;;;;6317093;28;20546;-70
2021/07/05 06:20:09;;;;;;;0.60;0.60;;;24.10;53.80;;;;;;6316669;28;20111;-69
2021/07/05 06:23:19;;;;;;;0.70;0.70;;;24.10;53.80;;;;;;6316260;28;20404;-69
2021/07/05 06:26:20;;;;;;;0.77;0.65;;;24.10;53.80;;;;;;6315332;28;20752;-70
2021/07/05 06:29:22;;;;;;;0.50;0.50;;;24.10;53.80;;;;;;6316703;28;20032;-69
2021/07/05 06:32:22;;;;;;;0.80;0.70;;;24.10;53.80;;;;;;6316352;28;20023;-69
2021/07/05 06:35:23;;;;;;;0.57;0.57;;;24.10;53.90;;;;;;6316727;28;20113;-69
2021/07/05 06:38:24;;;;;;;0.50;0.50;;;24.10;53.90;;;;;;6316582;28;20024;-68
2021/07/05 06:41:25;;;;;;;0.50;0.50;;;24.10;53.80;;;;;;6315255;28;20072;-69
2021/07/05 06:44:25;;;;;;;0.57;0.57;;;24.10;53.90;;;;;;6315051;28;20047;-69
2021/07/05 06:47:26;;;;;;;0.50;0.50;;;24.10;53.90;;;;;;6316249;28;20028;-68
2021/07/05 06:50:28;;;;;;;0.68;0.60;;;24.10;53.90;;;;;;6315273;28;20023;-69
2021/07/05 06:53:28;;;;;;;0.70;0.70;;;24.10;53.90;;;;;;6315583;28;20532;-68
2021/07/05 06:56:29;;;;;;;0.57;0.57;;;24.10;53.90;;;;;;6318845;28;20144;-68
2021/07/05 06:59:30;;;;;;;0.60;0.60;;;24.10;53.90;;;;;;6344710;28;20020;-69
2021/07/05 07:02:33;;;;;;;0.77;0.60;;;24.10;53.90;;;;;;6340879;28;20047;-69
2021/07/05 07:05:34;;;;;;;0.50;0.50;;;24.10;53.90;;;;;;6319857;28;20485;-68
2021/07/05 07:08:35;;;;;;;0.45;0.45;;;24.10;54.00;;;;;;6321712;28;20109;-69
2021/07/05 07:11:35;;;;;;;0.80;0.60;;;24.10;54.00;;;;;;6321363;28;20477;-68
2021/07/05 07:14:36;;;;;;;0.70;0.60;;;24.10;54.00;;;;;;6339049;28;20032;-69
2021/07/05 07:17:39;;;;;;;0.63;0.63;;;24.10;54.00;;;;;;6346276;27;20054;-69
2021/07/05 07:20:40;;;;;;;0.70;0.60;;;24.10;54.00;;;;;;6316047;28;20020;-70
2021/07/05 07:23:40;;;;;;;1.33;0.68;;;24.10;54.00;;;;;;6311852;28;20113;-69
2021/07/05 07:26:41;;;;;;;0.50;0.50;;;24.10;54.00;;;;;;6320885;28;20089;-69
2021/07/05 07:29:42;;;;;;;0.90;0.63;;;24.10;54.00;;;;;;6320477;28;20135;-70
2021/07/05 07:32:45;;;;;;;0.60;0.50;;;24.10;54.00;;;;;;6307096;28;20600;-68
2021/07/05 07:35:47;;;;;;;0.70;0.70;;;24.10;54.00;;;;;;6318262;28;20032;-69
2021/07/05 07:38:53;;;;;;;0.75;0.65;;;24.10;54.10;;;;;;6317256;28;20101;-69
2021/07/05 07:41:53;;;;;;;0.57;0.57;;;24.10;54.00;;;;;;6317661;28;20008;-68
2021/07/05 07:44:54;;;;;;;0.32;0.32;;;24.10;54.10;;;;;;6318109;28;20032;-69
2021/07/05 07:47:54;;;;;;;0.90;0.68;;;24.10;54.10;;;;;;6318814;28;20103;-67
2021/07/05 07:50:55;;;;;;;0.80;0.70;;;24.10;54.10;;;;;;6318776;28;20024;-69
2021/07/05 07:53:56;;;;;;;0.50;0.50;;;24.10;54.10;;;;;;6316149;28;20044;-70
2021/07/05 07:56:57;;;;;;;2.25;0.80;;;24.10;54.10;;;;;;6319704;28;20032;-68
2021/07/05 07:59:57;;;;;;;0.57;0.57;;;24.10;54.20;;;;;;6318740;28;20028;-69
2021/07/05 08:02:58;;;;;;;0.60;0.60;;;24.10;54.10;;;;;;6317186;28;20111;-69
2021/07/05 08:05:59;;;;;;;0.85;0.60;;;24.10;54.20;;;;;;6320910;28;20048;-66
2021/07/05 08:09:01;;;;;;;0.60;0.60;;;24.10;54.80;;;;;;6316450;28;20031;-69
2021/07/05 08:12:01;;;;;;;0.55;0.55;;;24.10;54.20;;;;;;6318641;28;20024;-68
2021/07/05 08:15:04;;;;;;;0.65;0.65;;;24.10;54.20;;;;;;6318156;28;20028;-69
2021/07/05 08:18:04;;;;;;;0.70;0.50;;;24.10;54.20;;;;;;6318471;28;20064;-66
2021/07/05 08:21:05;;;;;;;0.82;0.68;;;24.10;54.20;;;;;;6317971;28;20035;-68
2021/07/05 08:24:06;;;;;;;0.57;0.57;;;24.10;54.20;;;;;;6316700;28;20039;-69
2021/07/05 08:27:06;;;;;;;0.80;0.80;;;24.10;54.20;;;;;;6303953;28;20031;-69
2021/07/05 08:30:08;;;;;;;0.77;0.70;;;24.10;54.30;;;;;;6314787;28;20032;-69
2021/07/05 08:33:08;;;;;;;0.88;0.88;;;24.10;54.30;;;;;;6317926;28;20508;-69
2021/07/05 08:36:09;;;;;;;0.50;0.50;;;24.10;54.30;;;;;;6316654;28;20035;-69
2021/07/05 08:39:10;;;;;;;0.82;0.52;;;24.10;54.30;;;;;;6324694;28;20099;-69
2021/07/05 08:42:11;;;;;;;0.52;0.50;;;24.10;54.30;;;;;;6316914;28;20032;-69
2021/07/05 08:45:13;;;;;;;0.50;0.50;;;24.10;54.30;;;;;;6316664;28;20024;-67
2021/07/05 08:48:14;;;;;;;0.60;0.60;;;24.10;54.30;;;;;;6317606;28;20077;-69
2021/07/05 08:51:19;;;;;;;0.65;0.63;;;24.10;54.30;;;;;;6317385;28;20089;-69
2021/07/05 08:54:19;;;;;;;0.73;0.70;;;24.00;54.20;;;;;;6316466;28;20152;-69
2021/07/05 08:57:36;;;;;;;0.80;0.60;;;24.10;54.30;;;;;;6317245;28;20528;-69
2021/07/05 09:00:37;;;;;;;0.95;0.85;;;24.10;54.30;;;;;;6317233;28;20024;-69
2021/07/05 09:03:38;;;;;;;0.70;0.70;;;24.10;54.30;;;;;;6316851;28;20036;-68
2021/07/05 09:07:08;;;;;;;0.60;0.60;;;24.10;54.40;;;;;;6316418;28;20031;-67
2021/07/05 09:10:09;;;;;;;0.60;0.60;;;24.10;54.40;;;;;;6317017;28;20029;-69
2021/07/05 09:13:21;;;;;;;0.70;0.70;;;24.10;54.40;;;;;;6316820;28;20020;-69
2021/07/05 09:16:34;;;;;;;0.50;0.50;;;24.10;54.40;;;;;;6316979;28;20020;-69
2021/07/05 09:19:37;;;;;;;0.68;0.60;;;24.10;54.40;;;;;;6315916;28;20099;-69
2021/07/05 09:22:38;;;;;;;0.80;0.55;;;24.00;54.30;;;;;;6315404;28;20039;-69
2021/07/05 09:25:42;;;;;;;1.02;0.50;;;24.10;54.40;;;;;;6316858;28;20497;-69
2021/07/05 09:28:43;;;;;;;0.70;0.70;;;24.10;54.40;;;;;;6315560;28;20025;-69
2021/07/05 09:31:53;;;;;;;0.65;0.65;;;24.10;54.40;;;;;;6316044;28;20032;-69
2021/07/05 09:34:54;;;;;;;0.60;0.60;;;24.10;54.40;;;;;;6315332;28;20077;-69
2021/07/05 09:37:59;;;;;;;0.60;0.50;;;24.10;54.50;;;;;;6316564;28;20593;-69
2021/07/05 09:41:23;;;;;;;0.70;0.60;;;24.10;54.50;;;;;;6321381;28;20146;-69
2021/07/05 09:44:25;;;;;;;0.73;0.60;;;24.10;54.50;;;;;;6325254;28;20652;-68
2021/07/05 09:47:26;;;;;;;0.65;0.65;;;24.10;54.50;;;;;;6333966;28;20019;-66
2021/07/05 09:50:33;;;;;;;1.08;0.60;;;24.10;54.50;;;;;;6330297;28;20016;-67
2021/07/05 09:53:42;;;;;;;0.50;0.50;;;24.10;54.50;;;;;;6316150;28;20046;-68
2021/07/05 09:56:45;;;;;;;0.50;0.50;;;24.10;54.60;;;;;;6316515;28;20058;-64
2021/07/05 09:59:50;;;;;;;0.40;0.40;;;24.10;54.60;;;;;;6317103;28;20338;-68
2021/07/05 10:03:01;;;;;;;0.70;0.70;;;24.10;54.60;;;;;;6314904;28;20028;-68
2021/07/05 10:06:19;;;;;;;0.70;0.50;;;24.10;54.60;;;;;;6317903;28;20016;-65
2021/07/05 10:09:40;;;;;;;1.27;0.60;;;24.10;54.60;;;;;;6342988;28;20020;-65
2021/07/05 10:13:03;;;;;;;0.65;0.50;;;24.00;54.50;;;;;;6306375;28;20433;-65
2021/07/05 10:16:10;;;;;;;0.70;0.70;;;24.10;54.70;;;;;;6326866;28;20524;-65
2021/07/05 10:19:12;;;;;;;0.52;0.52;;;24.10;54.70;;;;;;6315972;28;20016;-65
2021/07/05 10:22:14;;;;;;;0.60;0.60;;;24.10;54.70;;;;;;6316742;28;20066;-65
2021/07/05 10:25:16;;;;;;;0.63;0.63;;;24.10;54.70;;;;;;6322754;28;20073;-65
2021/07/05 10:28:18;;;;;;;0.60;0.50;;;24.10;54.70;;;;;;6334661;28;20027;-65
2021/07/05 10:31:19;;;;;;;0.70;0.60;;;24.10;54.70;;;;;;6327712;28;20695;-65
2021/07/05 10:34:22;;;;;;;0.50;0.50;;;24.10;54.70;;;;;;6316411;28;20032;-64
2021/07/05 10:38:05;;;;;;;0.57;0.50;;;24.10;54.80;;;;;;6315431;28;20031;-66
2021/07/05 10:41:11;;;;;;;1.23;0.55;;;24.00;54.60;;;;;;6327487;28;20058;-65
2021/07/05 10:44:15;;;;;;;0.70;0.55;;;24.10;54.70;;;;;;6318636;28;20024;-65
2021/07/05 10:47:46;;;;;;;0.88;0.60;;;24.00;54.60;;;;;;6314715;28;20400;-65
2021/07/05 10:50:51;;;;;;;0.40;0.40;;;24.00;54.70;;;;;;6316151;28;20404;-65
2021/07/05 10:53:53;;;;;;;0.95;0.60;;;24.00;54.70;;;;;;6316103;28;20039;-65
2021/07/05 10:56:54;;;;;;;0.40;0.40;;;24.00;54.70;;;;;;6331317;28;20508;-66
2021/07/05 11:00:03;;;;;;;0.60;0.60;;;24.10;54.70;;;;;;6316597;28;20038;-65
2021/07/05 11:03:04;;;;;;;1.00;0.60;;;24.10;54.80;;;;;;6340939;28;20120;-65
2021/07/05 11:06:29;;;;;;;0.68;0.60;;;24.10;54.80;;;;;;6331825;28;20036;-65
2021/07/05 11:09:29;;;;;;;0.80;0.70;;;24.10;54.80;;;;;;6316125;28;20016;-65
2021/07/05 11:12:34;;;;;;;2.78;0.60;;;24.10;54.80;;;;;;6331036;28;20032;-65
2021/07/05 11:15:53;;;;;;;0.75;0.70;;;24.10;54.80;;;;;;6316195;28;20028;-64
2021/07/05 11:18:53;;;;;;;1.05;0.82;;;24.10;54.80;;;;;;6315124;28;20054;-65
2021/07/05 11:21:56;;;;;;;0.98;0.80;;;24.10;54.80;;;;;;6315666;28;20145;-65
2021/07/05 11:25:13;;;;;;;0.93;0.70;;;24.10;54.80;;;;;;6336595;28;20696;-65
2021/07/05 11:28:19;;;;;;;0.85;0.73;;;24.10;54.80;;;;;;6321431;28;20020;-64
2021/07/05 11:31:21;;;;;;;0.80;0.63;;;24.10;54.80;;;;;;6340724;28;20039;-65
2021/07/05 11:34:31;;;;;;;0.93;0.80;;;24.10;54.80;;;;;;6325668;28;20032;-65
2021/07/05 11:37:32;;;;;;;0.85;0.80;;;24.10;54.80;;;;;;6330674;28;20039;-65
2021/07/05 11:40:42;;;;;;;0.88;0.70;;;24.10;54.80;;;;;;6316035;28;20024;-65
2021/07/05 11:44:08;;;;;;;1.50;0.93;;;24.10;54.80;;;;;;6327819;28;20023;-65
2021/07/05 11:47:09;;;;;;;1.00;0.90;;;24.10;54.80;;;;;;6335687;28;20426;-65
2021/07/05 11:50:27;;;;;;;2.08;0.82;;;24.00;54.80;;;;;;6320438;28;20024;-64
2021/07/05 11:53:27;;;;;;;0.73;0.73;;;24.10;54.90;;;;;;6331705;28;20130;-65
2021/07/05 11:56:43;;;;;;;0.70;0.70;;;24.10;54.80;;;;;;6323429;28;20099;-64
2021/07/05 11:59:44;;;;;;;1.08;0.80;;;24.00;54.80;;;;;;6330634;28;20048;-65
2021/07/05 12:02:44;;;;;;;0.60;0.47;;;24.00;54.80;;;;;;6333204;28;20426;-65
2021/07/05 12:05:57;;;;;;;1.08;0.80;;;24.10;54.90;;;;;;6320700;28;20168;-65
2021/07/05 12:09:02;;;;;;;0.68;0.60;;;24.10;54.90;;;;;;6341034;28;20023;-65
2021/07/05 12:12:11;;;;;;;0.73;0.60;;;24.10;54.90;;;;;;6334756;28;20026;-65
2021/07/05 12:15:12;;;;;;;0.52;0.52;;;24.00;54.80;;;;;;6320010;28;20115;-66
2021/07/05 12:18:16;;;;;;;0.90;0.60;;;24.10;54.90;;;;;;6319618;28;20032;-65
2021/07/05 12:21:16;;;;;;;0.65;0.60;;;24.00;54.80;;;;;;6341871;28;20020;-64
2021/07/05 12:24:29;;;;;;;0.73;0.43;;;24.00;54.90;;;;;;6322604;28;20508;-65
2021/07/05 12:27:34;;;;;;;0.77;0.77;;;24.00;54.90;;;;;;6312559;28;20020;-66
2021/07/05 12:30:36;;;;;;;0.50;0.50;;;24.00;54.80;;;;;;6317378;28;20024;-65
2021/07/05 12:33:36;;;;;;;0.60;0.60;;;24.00;54.90;;;;;;6317084;28;20021;-66
2021/07/05 12:36:38;;;;;;;0.60;0.60;;;24.00;55.00;;;;;;6318634;28;20024;-66
2021/07/05 12:39:48;;;;;;;0.55;0.52;;;24.00;54.90;;;;;;6335156;28;20020;-66
2021/07/05 12:43:04;;;;;;;0.90;0.70;;;24.00;54.90;;;;;;6325468;28;20027;-65
2021/07/05 12:46:04;;;;;;;0.68;0.68;;;24.00;54.90;;;;;;6324431;28;20522;-66
2021/07/05 12:49:05;;;;;;;0.60;0.60;;;24.00;54.90;;;;;;6318744;28;20028;-65
2021/07/05 12:52:09;;;;;;;0.75;0.60;;;24.00;54.90;;;;;;6318616;28;20020;-65
2021/07/05 12:55:14;;;;;;;0.60;0.60;;;24.00;54.90;;;;;;6325831;28;20044;-66
2021/07/05 12:58:16;;;;;;;0.80;0.70;;;24.00;54.90;;;;;;6328873;28;20396;-67
2021/07/05 13:01:40;;;;;;;0.77;0.60;;;24.10;55.00;;;;;;6317694;28;20028;-66
2021/07/05 13:04:41;;;;;;;0.70;0.70;;;24.10;55.00;;;;;;6338238;28;20027;-66
2021/07/05 13:07:56;;;;;;;0.50;0.50;;;24.00;55.00;;;;;;6329050;28;20726;-66
2021/07/05 13:11:13;;;;;;;0.70;0.70;;;24.00;55.00;;;;;;6315826;28;20071;-66
2021/07/05 13:14:15;;;;;;;0.60;0.60;;;24.00;55.00;;;;;;6306748;28;20488;-66
2021/07/05 13:17:19;;;;;;;3.13;0.60;;;24.00;55.00;;;;;;6316637;28;20035;-66
2021/07/05 13:20:20;;;;;;;0.60;0.50;;;24.10;55.10;;;;;;6340604;28;20032;-65
2021/07/05 13:23:53;;;;;;;1.05;0.60;;;24.00;55.00;;;;;;6322021;28;20024;-65
2021/07/05 13:27:00;;;;;;;0.77;0.70;;;24.10;55.10;;;;;;6315637;28;20017;-66
2021/07/05 13:30:10;;;;;;;0.50;0.50;;;24.00;55.00;;;;;;6315890;28;20016;-66
2021/07/05 13:33:11;;;;;;;0.43;0.43;;;24.00;55.00;;;;;;6315110;28;20022;-66
2021/07/05 13:36:11;;;;;;;0.50;0.50;;;24.00;55.00;;;;;;6315646;28;20020;-65
2021/07/05 13:39:12;;;;;;;0.60;0.60;;;24.00;55.10;;;;;;6316617;28;20023;-66
2021/07/05 13:42:17;;;;;;;1.52;0.70;;;24.10;55.10;;;;;;6315954;28;20028;-67
2021/07/05 13:45:25;;;;;;;0.50;0.50;;;24.10;55.30;;;;;;6316345;28;20555;-66
2021/07/05 13:48:38;;;;;;;1.50;0.90;;;24.10;55.20;;;;;;6314342;28;20020;-66
2021/07/05 13:51:39;;;;;;;0.95;0.60;;;24.10;55.30;;;;;;6315797;28;20547;-66
2021/07/05 13:54:40;;;;;;;1.30;0.75;;;24.10;55.30;;;;;;6316430;28;20080;-66
2021/07/05 13:57:47;;;;;;;1.17;0.80;;;24.10;55.30;;;;;;6316218;28;20524;-66
2021/07/05 14:00:57;;;;;;;1.05;0.60;;;24.10;55.30;;;;;;6314608;28;20020;-66
2021/07/05 14:03:59;;;;;;;0.80;0.80;;;24.10;55.30;;;;;;6315721;28;20489;-67
2021/07/05 14:07:00;;;;;;;3.15;0.60;;;24.10;55.30;;;;;;6316121;28;20017;-66
2021/07/05 14:10:00;;;;;;;0.77;0.55;;;24.10;55.30;;;;;;6316157;28;20035;-65
2021/07/05 14:13:03;;;;;;;1.33;0.85;;;24.10;55.30;;;;;;6314583;28;20028;-66
2021/07/05 14:16:06;;;;;;;3.92;1.02;;;24.10;55.60;;;;;;6315581;28;20032;-67
2021/07/05 14:19:08;;;;;;;1.80;0.90;;;24.10;55.60;;;;;;6314274;28;20028;-66
2021/07/05 14:22:09;;;;;;;1.90;1.10;;;24.10;56.00;;;;;;6313657;28;20111;-66
2021/07/05 14:25:12;;;;;;;1.80;1.40;;;24.10;56.30;;;;;;6313790;28;20020;-66
2021/07/05 14:28:14;;;;;;;4.78;1.35;;;24.10;56.30;;;;;;6312337;28;20036;-65
2021/07/05 14:31:14;;;;;;;1.67;1.10;;;24.10;56.50;;;;;;6315051;28;20101;-66
2021/07/05 14:34:15;;;;;;;1.77;1.23;;;24.10;56.20;;;;;;6313633;28;20020;-66
2021/07/05 14:37:16;;;;;;;1.20;1.00;;;24.00;55.90;;;;;;6314906;28;20077;-66
2021/07/05 14:40:17;;;;;;;1.83;0.90;;;24.00;55.70;;;;;;6314993;28;20027;-66
2021/07/05 14:43:18;;;;;;;1.00;0.90;;;24.00;55.60;;;;;;6313575;28;20119;-66
2021/07/05 14:46:18;;;;;;;1.10;0.95;;;24.00;55.60;;;;;;6315265;28;20112;-66
2021/07/05 14:49:19;;;;;;;1.42;0.93;;;24.10;55.60;;;;;;6315367;28;20024;-66
2021/07/05 14:52:20;;;;;;;1.23;0.80;;;24.00;55.50;;;;;;6314163;28;20028;-66
2021/07/05 14:55:21;;;;;;;1.42;0.90;;;24.10;55.60;;;;;;6314991;28;20135;-66
2021/07/05 14:58:21;;;;;;;0.95;0.70;;;24.10;55.50;;;;;;6315037;28;20020;-66
2021/07/05 15:01:23;;;;;;;0.60;0.60;;;24.00;55.40;;;;;;6314350;28;20557;-66
2021/07/05 15:04:24;;;;;;;0.85;0.73;;;24.10;55.50;;;;;;6313697;28;20031;-67
2021/07/05 15:07:24;;;;;;;0.70;0.70;;;24.00;55.40;;;;;;6315061;28;20059;-66
2021/07/05 15:10:26;;;;;;;1.83;0.82;;;24.10;55.40;;;;;;6314479;28;20427;-66
2021/07/05 15:13:29;;;;;;;1.98;0.70;;;24.10;55.50;;;;;;6313212;28;20173;-66
2021/07/05 15:16:30;;;;;;;1.02;0.90;;;24.10;55.50;;;;;;6313538;28;20031;-66
2021/07/05 15:19:30;;;;;;;1.30;0.90;;;24.10;55.60;;;;;;6319401;28;20382;-66
2021/07/05 15:22:31;;;;;;;1.50;0.82;;;24.00;55.50;;;;;;6318578;28;20353;-66
2021/07/05 15:25:34;;;;;;;1.15;0.80;;;24.10;55.60;;;;;;6319193;28;20016;-65
2021/07/05 15:28:35;;;;;;;0.88;0.88;;;24.00;55.50;;;;;;6317947;28;20028;-66
2021/07/05 15:31:35;;;;;;;1.75;0.93;;;24.00;55.50;;;;;;6318651;28;20027;-66
2021/07/05 15:34:37;;;;;;;1.67;0.93;;;24.10;55.50;;;;;;6317300;28;20028;-66
2021/07/05 15:37:38;;;;;;;1.10;1.00;;;24.00;55.40;;;;;;6318484;28;20028;-66
2021/07/05 15:40:39;;;;;;;0.98;0.80;;;24.00;55.40;;;;;;6317945;28;20024;-66
2021/07/05 15:43:40;;;;;;;0.90;0.70;;;24.00;55.40;;;;;;6318799;28;20097;-66
2021/07/05 15:46:40;;;;;;;1.33;0.70;;;24.10;55.50;;;;;;6318638;28;20099;-66
2021/07/05 15:49:41;;;;;;;0.75;0.75;;;24.10;55.30;;;;;;6318681;28;20020;-66
2021/07/05 15:52:43;;;;;;;1.00;0.70;;;24.00;55.30;;;;;;6318010;28;20043;-65
2021/07/05 15:55:43;;;;;;;1.27;0.70;;;24.00;55.30;;;;;;6317682;28;20052;-65